Time;durP1;ratioP1;P1;durP2;ratioP2;P2;SDS_P1;SDS_P2;PMS_P1;PMS_P2;Temp;Humidity;BMP_temperature;BMP_pressure;BME280_temperature;BME280_humidity;BME280_pressure;Samples;Min_cycle;Max_cycle;Signal;HPM_P1;HPM_P2
2023/12/02 00:01:51;;;;;;;23.97;13.10;;;1.00;99.90;;;;;;5073916;28;20856;-77
2023/12/02 00:04:18;;;;;;;19.40;13.93;;;1.00;99.90;;;;;;5073206;28;20576;-80
2023/12/02 00:06:44;;;;;;;19.67;14.07;;;1.00;99.90;;;;;;5071916;28;20456;-78
2023/12/02 00:09:10;;;;;;;29.50;15.60;;;1.00;99.90;;;;;;5073149;28;20852;-79
2023/12/02 00:11:36;;;;;;;24.50;15.83;;;1.00;99.90;;;;;;5073143;28;20539;-76
2023/12/02 00:14:02;;;;;;;29.30;15.10;;;1.00;99.90;;;;;;5074133;28;20419;-79
2023/12/02 00:16:27;;;;;;;23.67;13.50;;;1.00;99.90;;;;;;5071932;28;20470;-77
2023/12/02 00:18:53;;;;;;;21.43;15.00;;;1.00;99.90;;;;;;5073076;28;20175;-76
2023/12/02 00:21:19;;;;;;;19.10;13.80;;;1.00;99.90;;;;;;5072778;28;20288;-75
2023/12/02 00:23:44;;;;;;;25.00;13.97;;;1.00;99.90;;;;;;5073990;28;20168;-76
2023/12/02 00:26:10;;;;;;;17.70;13.43;;;1.00;99.90;;;;;;5072712;28;20167;-78
2023/12/02 00:28:36;;;;;;;20.30;15.10;;;1.00;99.90;;;;;;5071340;28;20229;-77
2023/12/02 00:31:01;;;;;;;17.40;13.37;;;0.90;99.90;;;;;;5074037;28;20170;-79
2023/12/02 00:33:27;;;;;;;20.30;13.17;;;0.90;99.90;;;;;;5066809;28;20175;-77
2023/12/02 00:35:53;;;;;;;18.30;13.70;;;0.90;99.90;;;;;;5052865;28;20232;-81
2023/12/02 00:38:18;;;;;;;18.97;12.47;;;0.90;99.90;;;;;;5053828;28;20230;-79
2023/12/02 00:40:44;;;;;;;15.90;13.07;;;0.90;99.90;;;;;;5053710;28;20202;-76
2023/12/02 00:43:10;;;;;;;17.73;13.77;;;0.90;99.90;;;;;;5053210;28;20198;-79
2023/12/02 00:45:35;;;;;;;22.00;14.37;;;0.90;99.90;;;;;;5052935;28;20183;-76
2023/12/02 00:48:01;;;;;;;16.37;12.83;;;1.00;99.90;;;;;;5049834;28;20266;-77
2023/12/02 00:50:27;;;;;;;17.40;12.93;;;0.90;99.90;;;;;;5033731;28;20201;-76
2023/12/02 00:52:53;;;;;;;17.93;13.13;;;0.90;99.90;;;;;;5033851;28;20168;-77
2023/12/02 00:55:18;;;;;;;19.60;13.83;;;0.90;99.90;;;;;;5031386;28;20414;-77
2023/12/02 00:57:44;;;;;;;17.30;14.10;;;0.90;99.90;;;;;;5062605;28;20280;-79
2023/12/02 01:00:10;;;;;;;18.40;14.00;;;0.90;99.90;;;;;;5072939;28;20228;-80
2023/12/02 01:02:36;;;;;;;16.83;13.27;;;0.90;99.90;;;;;;5070586;28;20194;-77
2023/12/02 01:05:02;;;;;;;21.00;13.23;;;0.90;99.90;;;;;;5071507;28;20829;-79
2023/12/02 01:07:28;;;;;;;16.93;13.00;;;0.90;99.90;;;;;;5073308;28;20193;-76
2023/12/02 01:09:54;;;;;;;15.17;12.67;;;0.90;99.90;;;;;;5073317;28;20412;-77
2023/12/02 01:12:19;;;;;;;17.10;12.23;;;0.90;99.90;;;;;;5071746;28;20174;-77
2023/12/02 01:14:45;;;;;;;16.87;13.27;;;1.00;99.90;;;;;;5071291;28;20166;-77
2023/12/02 01:17:11;;;;;;;17.43;13.37;;;0.90;99.90;;;;;;5070234;28;20186;-80
2023/12/02 01:19:36;;;;;;;17.60;13.77;;;0.90;99.90;;;;;;5072978;28;20170;-77
2023/12/02 01:22:02;;;;;;;16.03;13.37;;;0.80;99.90;;;;;;5073175;28;20205;-77
2023/12/02 01:24:28;;;;;;;19.00;14.30;;;0.90;99.90;;;;;;5072864;28;20563;-81
2023/12/02 01:26:54;;;;;;;21.87;13.93;;;0.90;99.90;;;;;;5056476;28;20230;-80
2023/12/02 01:29:19;;;;;;;15.53;12.03;;;0.90;99.90;;;;;;5053077;28;20510;-77
2023/12/02 01:31:45;;;;;;;16.40;11.93;;;0.90;99.90;;;;;;5055843;28;20174;-77
2023/12/02 01:34:11;;;;;;;16.87;12.80;;;0.90;99.90;;;;;;5071851;28;20581;-80
2023/12/02 01:36:36;;;;;;;19.00;13.10;;;0.90;99.90;;;;;;5071469;28;20182;-77
2023/12/02 01:39:02;;;;;;;15.67;12.10;;;0.90;99.90;;;;;;5071649;28;20170;-81
2023/12/02 01:41:31;;;;;;;19.07;13.93;;;0.90;99.90;;;;;;5072873;28;20558;-80
2023/12/02 01:43:57;;;;;;;19.03;12.97;;;0.90;99.90;;;;;;5052914;28;20636;-77
2023/12/02 01:46:23;;;;;;;14.27;11.20;;;1.00;99.90;;;;;;5050675;28;20416;-81
2023/12/02 01:48:49;;;;;;;19.90;12.47;;;1.00;99.90;;;;;;5052573;28;20419;-80
2023/12/02 01:51:16;;;;;;;18.47;12.77;;;1.00;99.90;;;;;;5051581;28;20183;-80
2023/12/02 01:53:42;;;;;;;15.37;12.03;;;0.90;99.90;;;;;;5051629;28;20421;-81
2023/12/02 01:56:09;;;;;;;16.10;12.07;;;0.90;99.90;;;;;;5051431;28;20512;-81
2023/12/02 01:58:36;;;;;;;13.83;10.90;;;0.90;99.90;;;;;;5072007;28;20662;-77
2023/12/02 02:01:04;;;;;;;12.17;8.83;;;0.90;99.90;;;;;;5053903;28;20467;-77
2023/12/02 02:03:33;;;;;;;7.20;6.50;;;0.90;99.90;;;;;;5040348;28;20914;-78
2023/12/02 02:05:59;;;;;;;5.20;4.80;;;0.90;99.90;;;;;;5031248;28;20430;-78
2023/12/02 02:08:25;;;;;;;7.43;6.50;;;0.90;99.90;;;;;;5015508;28;20572;-80
2023/12/02 02:10:56;;;;;;;7.50;6.50;;;0.90;99.90;;;;;;5031759;28;20883;-78
2023/12/02 02:13:23;;;;;;;10.17;7.57;;;0.90;99.90;;;;;;5031711;28;20172;-77
2023/12/02 02:15:48;;;;;;;8.57;7.50;;;1.00;99.90;;;;;;5032261;28;20409;-78
2023/12/02 02:18:15;;;;;;;6.70;6.10;;;1.00;99.90;;;;;;5044450;28;20429;-78
2023/12/02 02:20:41;;;;;;;7.30;6.63;;;1.00;99.90;;;;;;5052757;28;20284;-77
2023/12/02 02:23:07;;;;;;;7.00;6.30;;;1.00;99.90;;;;;;5053348;28;20444;-77
2023/12/02 02:25:33;;;;;;;6.70;6.00;;;1.00;99.90;;;;;;5054999;28;20170;-77
2023/12/02 02:27:59;;;;;;;7.17;5.90;;;1.00;99.90;;;;;;5055412;28;20203;-77
2023/12/02 02:30:25;;;;;;;6.93;6.43;;;1.00;99.90;;;;;;5055547;28;20261;-77
2023/12/02 02:32:50;;;;;;;7.07;6.00;;;1.00;99.90;;;;;;5048480;28;20457;-77
2023/12/02 02:35:16;;;;;;;8.30;6.50;;;1.10;99.90;;;;;;5034593;28;20410;-78
2023/12/02 02:37:42;;;;;;;7.37;6.53;;;1.00;99.90;;;;;;5036582;28;20274;-78
2023/12/02 02:40:08;;;;;;;6.90;6.30;;;1.10;99.90;;;;;;5035511;28;20258;-77
2023/12/02 02:42:35;;;;;;;6.33;5.73;;;1.10;99.90;;;;;;5044946;28;20639;-77
2023/12/02 02:45:02;;;;;;;5.63;5.13;;;1.00;99.90;;;;;;5055921;28;20420;-78
2023/12/02 02:47:28;;;;;;;4.87;4.47;;;0.90;99.90;;;;;;5056283;28;20437;-78
2023/12/02 02:49:54;;;;;;;4.20;3.90;;;0.90;99.90;;;;;;5056314;28;20465;-77
2023/12/02 02:52:19;;;;;;;4.40;4.00;;;0.90;99.90;;;;;;5054815;28;20175;-77
2023/12/02 02:54:45;;;;;;;4.70;4.40;;;0.90;99.90;;;;;;5054287;28;20177;-77
2023/12/02 02:57:11;;;;;;;4.70;4.30;;;0.90;99.90;;;;;;5055588;28;20206;-77
2023/12/02 02:59:36;;;;;;;4.10;3.70;;;0.90;99.90;;;;;;5054756;28;20178;-78
2023/12/02 03:02:02;;;;;;;4.30;4.00;;;0.90;99.90;;;;;;5055703;28;20702;-77
2023/12/02 03:04:28;;;;;;;4.23;3.93;;;0.90;99.90;;;;;;5053941;28;20623;-78
2023/12/02 03:06:54;;;;;;;4.60;4.20;;;0.90;99.90;;;;;;5053999;28;20845;-77
2023/12/02 03:09:19;;;;;;;4.80;4.33;;;0.90;99.90;;;;;;5055350;28;20159;-77
2023/12/02 03:11:48;;;;;;;4.60;4.20;;;0.90;99.90;;;;;;5054728;28;20505;-77
2023/12/02 03:14:14;;;;;;;4.60;4.30;;;1.00;99.90;;;;;;5055614;28;20178;-77
2023/12/02 03:16:39;;;;;;;4.83;4.37;;;1.00;99.90;;;;;;5054724;28;20417;-77
2023/12/02 03:19:05;;;;;;;4.00;3.70;;;1.00;99.90;;;;;;5054566;28;20182;-81
2023/12/02 03:21:31;;;;;;;4.73;3.90;;;1.00;99.90;;;;;;5054249;28;20648;-77
2023/12/02 03:23:56;;;;;;;4.50;4.20;;;1.00;99.90;;;;;;5055314;28;20171;-77
2023/12/02 03:26:24;;;;;;;3.93;3.63;;;1.00;99.90;;;;;;5052420;28;20583;-78
2023/12/02 03:28:50;;;;;;;4.40;4.00;;;1.00;99.90;;;;;;5055149;28;20589;-77
2023/12/02 03:31:15;;;;;;;4.37;4.07;;;1.00;99.90;;;;;;5054110;28;20496;-77
2023/12/02 03:33:41;;;;;;;4.50;4.10;;;1.00;99.90;;;;;;5053234;28;20596;-78
2023/12/02 03:36:07;;;;;;;4.63;4.13;;;1.00;99.90;;;;;;5054245;28;20635;-77
2023/12/02 03:38:33;;;;;;;4.27;3.87;;;1.00;99.90;;;;;;5054461;28;20202;-77
2023/12/02 03:40:59;;;;;;;4.70;4.40;;;0.90;99.90;;;;;;5055100;28;20511;-77
2023/12/02 03:43:25;;;;;;;5.80;4.63;;;0.90;99.90;;;;;;5053646;28;20181;-78
2023/12/02 03:45:51;;;;;;;5.17;4.20;;;0.90;99.90;;;;;;5054034;28;20496;-77
2023/12/02 03:48:16;;;;;;;6.53;4.90;;;0.90;99.90;;;;;;5054468;28;20191;-78
2023/12/02 03:50:42;;;;;;;6.27;4.40;;;1.00;99.90;;;;;;5034862;28;20175;-77
2023/12/02 03:53:08;;;;;;;4.97;4.57;;;1.00;99.90;;;;;;5034883;28;20175;-78
2023/12/02 03:55:33;;;;;;;5.27;4.87;;;1.00;99.90;;;;;;5033904;28;20199;-79
2023/12/02 03:57:59;;;;;;;6.63;4.13;;;1.00;99.90;;;;;;5034645;28;20191;-77
2023/12/02 04:00:27;;;;;;;5.60;4.97;;;1.00;99.90;;;;;;5054624;28;20198;-78
2023/12/02 04:02:52;;;;;;;6.10;4.80;;;1.00;99.90;;;;;;5074115;28;20404;-77
2023/12/02 04:05:18;;;;;;;5.13;4.83;;;1.00;99.90;;;;;;5056872;28;20413;-77
2023/12/02 04:07:44;;;;;;;5.87;5.33;;;1.00;99.90;;;;;;5053633;28;20256;-77
2023/12/02 04:10:09;;;;;;;5.00;4.50;;;1.00;99.90;;;;;;5053532;28;20182;-77
2023/12/02 04:12:36;;;;;;;6.40;5.80;;;0.90;99.90;;;;;;5053128;28;20178;-77
2023/12/02 04:15:02;;;;;;;5.73;5.30;;;0.90;99.90;;;;;;5053636;28;20253;-79
2023/12/02 04:17:28;;;;;;;6.50;5.90;;;0.90;99.90;;;;;;5057100;28;20469;-78
2023/12/02 04:19:53;;;;;;;6.40;5.90;;;0.80;99.90;;;;;;5051683;28;20995;-77
2023/12/02 04:22:19;;;;;;;6.43;5.90;;;0.80;99.90;;;;;;5053857;28;20163;-77
2023/12/02 04:24:46;;;;;;;5.90;5.40;;;0.70;99.90;;;;;;5052343;28;20173;-77
2023/12/02 04:27:12;;;;;;;5.50;5.00;;;0.70;99.90;;;;;;5053042;28;20234;-78
2023/12/02 04:29:41;;;;;;;6.63;6.10;;;0.70;99.90;;;;;;5054184;28;20404;-77
2023/12/02 04:32:08;;;;;;;5.40;4.90;;;0.70;99.90;;;;;;5064011;28;20159;-78
2023/12/02 04:34:34;;;;;;;6.43;5.90;;;0.70;99.90;;;;;;5057503;28;20481;-79
2023/12/02 04:37:00;;;;;;;6.73;6.20;;;0.60;99.90;;;;;;5045661;28;20770;-77
2023/12/02 04:39:25;;;;;;;7.17;6.57;;;0.60;99.90;;;;;;5052334;28;20462;-77
2023/12/02 04:41:51;;;;;;;9.93;6.40;;;0.60;99.90;;;;;;5053068;28;20199;-77
2023/12/02 04:44:17;;;;;;;5.43;4.93;;;0.60;99.90;;;;;;5053850;28;20147;-77
2023/12/02 04:46:43;;;;;;;6.40;5.90;;;0.60;99.90;;;;;;5052218;28;20942;-77
2023/12/02 04:49:11;;;;;;;6.57;5.90;;;0.60;99.90;;;;;;5054104;28;20175;-78
2023/12/02 04:51:36;;;;;;;8.30;6.37;;;0.50;99.90;;;;;;5053702;28;20413;-77
2023/12/02 04:54:03;;;;;;;6.23;5.73;;;0.50;99.90;;;;;;5052238;28;20410;-78
2023/12/02 04:56:29;;;;;;;6.87;6.17;;;0.50;99.90;;;;;;5052446;28;20424;-77
2023/12/02 04:58:56;;;;;;;6.68;6.03;;;0.40;99.90;;;;;;5053457;28;20405;-77
2023/12/02 05:01:22;;;;;;;7.13;6.40;;;0.40;99.90;;;;;;5051503;28;20285;-78
2023/12/02 05:03:47;;;;;;;7.17;6.47;;;0.40;99.90;;;;;;5054053;28;20500;-78
2023/12/02 05:06:14;;;;;;;7.63;6.30;;;0.40;99.90;;;;;;5052468;28;20233;-78
2023/12/02 05:08:40;;;;;;;6.70;6.00;;;0.40;99.90;;;;;;5052275;28;20202;-77
2023/12/02 05:11:06;;;;;;;7.10;6.40;;;0.40;99.90;;;;;;5051963;28;20429;-78
2023/12/02 05:13:32;;;;;;;6.38;5.78;;;0.40;99.90;;;;;;5053377;28;20473;-77
2023/12/02 05:15:58;;;;;;;6.50;5.90;;;0.30;99.90;;;;;;5051180;28;20178;-79
2023/12/02 05:18:23;;;;;;;7.77;7.07;;;0.30;99.90;;;;;;5052152;28;20285;-80
2023/12/02 05:20:49;;;;;;;6.40;5.47;;;0.30;99.90;;;;;;5053138;28;20198;-77
2023/12/02 05:23:15;;;;;;;6.57;5.57;;;0.20;99.90;;;;;;5053269;28;20155;-77
2023/12/02 05:25:41;;;;;;;6.63;5.40;;;0.10;1.00;;;;;;5058778;28;20189;-78
2023/12/02 05:28:07;;;;;;;6.67;6.07;;;0.20;1.00;;;;;;5071680;28;20771;-78
2023/12/02 05:30:36;;;;;;;7.83;5.87;;;0.10;1.00;;;;;;5072901;28;20413;-78
2023/12/02 05:33:01;;;;;;;8.05;6.43;;;0.10;1.00;;;;;;5059808;28;20417;-78
2023/12/02 05:35:27;;;;;;;7.43;6.50;;;0.10;1.00;;;;;;5051821;28;20528;-77
2023/12/02 05:37:53;;;;;;;11.77;5.80;;;0.10;1.00;;;;;;5052692;28;20269;-78
2023/12/02 05:40:19;;;;;;;8.03;6.60;;;0.00;1.00;;;;;;5051600;28;20281;-78
2023/12/02 05:42:44;;;;;;;10.80;7.23;;;0.10;1.00;;;;;;5051598;28;20209;-77
2023/12/02 05:45:10;;;;;;;6.17;5.67;;;0.10;1.00;;;;;;5051902;28;20163;-77
2023/12/02 05:47:36;;;;;;;7.80;6.40;;;0.20;1.00;;;;;;5053197;28;20252;-77
2023/12/02 05:50:02;;;;;;;6.50;5.80;;;0.10;1.00;;;;;;5052687;28;20409;-78
2023/12/02 05:52:28;;;;;;;6.65;6.05;;;0.10;1.00;;;;;;5051000;28;20174;-77
2023/12/02 05:54:55;;;;;;;7.53;6.27;;;0.10;1.00;;;;;;5051974;28;20175;-78
2023/12/02 05:57:20;;;;;;;7.43;6.68;;;0.10;1.00;;;;;;5052646;28;20203;-77
2023/12/02 05:59:46;;;;;;;6.83;4.97;;;0.00;1.00;;;;;;5055991;28;20170;-78
2023/12/02 06:02:12;;;;;;;6.77;6.00;;;0.00;1.00;;;;;;5057429;28;20192;-78
2023/12/02 06:04:37;;;;;;;5.67;5.07;;;-0.10;1.00;;;;;;5054672;28;20606;-78
2023/12/02 06:07:03;;;;;;;7.17;6.10;;;0.00;1.00;;;;;;5055440;28;20198;-78
2023/12/02 06:09:29;;;;;;;7.33;5.43;;;-0.10;1.00;;;;;;5056595;28;20197;-78
2023/12/02 06:11:55;;;;;;;7.57;6.17;;;-0.10;1.00;;;;;;5055133;28;20447;-77
2023/12/02 06:14:20;;;;;;;7.33;5.70;;;-0.10;1.00;;;;;;5055697;28;20175;-79
2023/12/02 06:16:46;;;;;;;7.23;6.50;;;-0.20;1.00;;;;;;5055986;28;20742;-79
2023/12/02 06:19:12;;;;;;;6.97;6.27;;;-0.10;1.00;;;;;;5055253;28;20170;-77
2023/12/02 06:21:38;;;;;;;6.50;5.90;;;-0.10;1.00;;;;;;5056319;28;20203;-78
2023/12/02 06:24:04;;;;;;;7.47;5.70;;;-0.10;1.00;;;;;;5056479;28;20171;-77
2023/12/02 06:26:30;;;;;;;6.00;5.38;;;-0.10;1.00;;;;;;5054136;28;20167;-78
2023/12/02 06:28:55;;;;;;;7.20;6.53;;;-0.20;1.00;;;;;;5055951;28;20190;-78
2023/12/02 06:31:21;;;;;;;6.47;5.90;;;-0.20;1.00;;;;;;5056514;28;20949;-77
2023/12/02 06:33:47;;;;;;;7.70;6.80;;;-0.20;1.00;;;;;;5056283;28;20178;-78
2023/12/02 06:36:13;;;;;;;5.90;5.40;;;-0.20;1.00;;;;;;5053702;28;20405;-77
2023/12/02 06:38:39;;;;;;;6.07;5.50;;;-0.20;1.00;;;;;;5037877;28;20664;-79
2023/12/02 06:41:05;;;;;;;5.57;5.10;;;-0.20;1.00;;;;;;5034923;28;20210;-78
2023/12/02 06:43:31;;;;;;;9.48;5.70;;;-0.20;1.00;;;;;;5036162;28;20592;-78
2023/12/02 06:45:57;;;;;;;6.17;5.60;;;-0.20;1.00;;;;;;5041739;28;20228;-80
2023/12/02 06:48:22;;;;;;;6.57;5.30;;;-0.30;1.00;;;;;;5054428;28;20190;-78
2023/12/02 06:50:48;;;;;;;7.23;6.40;;;-0.30;1.00;;;;;;5055886;28;20169;-78
2023/12/02 06:53:15;;;;;;;9.70;5.90;;;-0.20;1.00;;;;;;5053113;28;20183;-78
2023/12/02 06:55:42;;;;;;;6.45;5.85;;;-0.20;1.00;;;;;;5054570;28;20185;-78
2023/12/02 06:58:08;;;;;;;6.45;5.85;;;-0.20;1.00;;;;;;5055072;28;20630;-78
2023/12/02 07:00:34;;;;;;;8.50;6.90;;;-0.20;1.00;;;;;;5035238;28;20290;-79
2023/12/02 07:03:00;;;;;;;5.80;5.28;;;-0.20;1.00;;;;;;5054825;28;20409;-79
2023/12/02 07:05:26;;;;;;;6.33;5.73;;;-0.20;1.00;;;;;;5052132;28;20682;-78
2023/12/02 07:07:52;;;;;;;8.23;5.97;;;-0.10;1.00;;;;;;5054240;28;20187;-78
2023/12/02 07:10:18;;;;;;;5.90;5.00;;;-0.10;1.00;;;;;;5053815;28;20921;-80
2023/12/02 07:12:44;;;;;;;6.65;6.05;;;-0.10;1.00;;;;;;5056714;28;20195;-78
2023/12/02 07:15:10;;;;;;;7.10;6.30;;;-0.10;1.00;;;;;;5072152;28;20691;-78
2023/12/02 07:17:36;;;;;;;6.77;6.10;;;0.00;5.90;;;;;;5043145;28;20973;-78
2023/12/02 07:20:02;;;;;;;7.43;5.70;;;0.00;10.40;;;;;;5034230;28;20536;-75
2023/12/02 07:22:28;;;;;;;10.30;7.55;;;0.00;14.90;;;;;;5034132;28;20401;-75
2023/12/02 07:24:54;;;;;;;9.90;6.10;;;0.00;18.50;;;;;;5034046;28;20179;-76
2023/12/02 07:27:20;;;;;;;9.03;6.90;;;0.00;15.60;;;;;;5034063;28;20191;-75
2023/12/02 07:29:45;;;;;;;7.23;6.20;;;0.10;24.80;;;;;;5034180;28;20172;-75
2023/12/02 07:32:11;;;;;;;9.67;7.90;;;0.10;24.80;;;;;;5051697;28;20183;-75
2023/12/02 07:34:37;;;;;;;6.07;5.50;;;0.10;24.50;;;;;;5073182;28;20236;-76
2023/12/02 07:37:03;;;;;;;6.50;5.90;;;0.10;21.10;;;;;;5074003;28;20192;-76
2023/12/02 07:39:29;;;;;;;7.90;6.57;;;0.20;24.80;;;;;;5071748;28;20240;-75
2023/12/02 07:41:54;;;;;;;6.77;6.00;;;0.20;24.90;;;;;;5073875;28;20440;-75
2023/12/02 07:44:20;;;;;;;7.47;6.70;;;0.30;25.00;;;;;;5072419;28;20170;-76
2023/12/02 07:46:46;;;;;;;8.60;6.70;;;0.30;19.20;;;;;;5071693;28;20191;-76
2023/12/02 07:49:11;;;;;;;6.83;6.23;;;0.30;15.50;;;;;;5073889;28;20678;-75
2023/12/02 07:51:37;;;;;;;9.43;6.87;;;0.30;13.10;;;;;;5073784;28;20174;-75
2023/12/02 07:54:03;;;;;;;7.97;7.10;;;0.30;2.00;;;;;;5071602;28;20179;-75
2023/12/02 07:56:29;;;;;;;7.07;6.38;;;0.30;1.00;;;;;;5017361;28;1593456;-75
2023/12/02 07:58:55;;;;;;;7.73;6.80;;;0.30;1.00;;;;;;5074710;28;20228;-75
2023/12/02 08:01:24;;;;;;;11.53;6.90;;;0.20;1.00;;;;;;5072751;28;20216;-76
2023/12/02 08:03:50;;;;;;;6.57;5.97;;;0.30;1.00;;;;;;5073241;28;20443;-76
2023/12/02 08:06:16;;;;;;;6.83;6.20;;;0.30;1.00;;;;;;5072546;28;20436;-75
2023/12/02 08:08:41;;;;;;;7.73;6.00;;;0.30;1.00;;;;;;5074401;28;20182;-76
2023/12/02 08:11:07;;;;;;;6.93;6.07;;;0.30;1.00;;;;;;5069336;28;20182;-76
2023/12/02 08:13:33;;;;;;;7.33;6.63;;;0.30;1.00;;;;;;5053395;28;20556;-76
2023/12/02 08:15:59;;;;;;;6.93;6.10;;;0.30;1.00;;;;;;5053262;28;20421;-76
2023/12/02 08:18:24;;;;;;;7.87;7.07;;;0.40;1.00;;;;;;5065939;28;20273;-76
2023/12/02 08:20:50;;;;;;;6.53;5.93;;;0.40;1.00;;;;;;5071629;28;20547;-76
2023/12/02 08:23:16;;;;;;;7.83;6.80;;;0.40;1.00;;;;;;5074075;28;20167;-76
2023/12/02 08:25:41;;;;;;;8.60;7.40;;;0.40;1.00;;;;;;5073140;28;20392;-76
2023/12/02 08:28:07;;;;;;;6.67;6.13;;;0.50;1.00;;;;;;5068523;28;20619;-76
2023/12/02 08:30:33;;;;;;;7.23;6.60;;;0.60;1.00;;;;;;5053003;28;20274;-76
2023/12/02 08:32:59;;;;;;;7.50;6.67;;;0.60;1.00;;;;;;5052557;28;20194;-76
2023/12/02 08:35:24;;;;;;;20.90;18.80;;;0.70;1.00;;;;;;5053093;28;20173;-76
2023/12/02 08:37:50;;;;;;;10.50;8.47;;;0.70;1.00;;;;;;5052586;28;20198;-76
2023/12/02 08:40:16;;;;;;;12.10;7.77;;;0.80;1.00;;;;;;5051958;28;20171;-76
2023/12/02 08:42:41;;;;;;;11.37;8.40;;;0.80;1.00;;;;;;5072307;28;20253;-76
2023/12/02 08:45:07;;;;;;;11.77;8.63;;;0.80;1.00;;;;;;5072869;28;20174;-76
2023/12/02 08:47:33;;;;;;;8.90;7.93;;;0.80;1.00;;;;;;5068024;28;20285;-76
2023/12/02 08:49:59;;;;;;;10.47;7.50;;;0.80;1.00;;;;;;5033681;28;20844;-76
2023/12/02 08:52:25;;;;;;;8.93;7.00;;;0.80;1.00;;;;;;5033749;28;20170;-76
2023/12/02 08:54:50;;;;;;;10.47;8.97;;;0.80;1.00;;;;;;5032776;28;20249;-76
2023/12/02 08:57:16;;;;;;;10.50;8.60;;;0.80;1.00;;;;;;5070710;28;20205;-76
2023/12/02 08:59:42;;;;;;;9.33;8.07;;;0.90;1.00;;;;;;5073062;28;20536;-76
2023/12/02 09:02:08;;;;;;;12.03;8.53;;;0.90;1.00;;;;;;5073314;28;20201;-76
2023/12/02 09:04:35;;;;;;;10.73;9.00;;;0.90;1.00;;;;;;5055515;28;20175;-76
2023/12/02 09:07:01;;;;;;;8.97;8.03;;;0.90;1.00;;;;;;5053332;28;20421;-76
2023/12/02 09:09:27;;;;;;;10.10;7.57;;;0.90;1.00;;;;;;5052364;28;20417;-76
2023/12/02 09:11:53;;;;;;;9.07;8.03;;;0.80;1.00;;;;;;5053779;28;20436;-76
2023/12/02 09:14:18;;;;;;;9.20;7.77;;;0.80;1.00;;;;;;5073304;28;20900;-76
2023/12/02 09:16:47;;;;;;;8.83;7.93;;;0.90;1.00;;;;;;5072311;28;20189;-76
2023/12/02 09:19:41;;;;;;;8.83;7.43;;;0.90;1.00;;;;;;5059570;28;20182;-76
2023/12/02 09:22:23;;;;;;;10.63;7.80;;;1.00;1.00;;;;;;5052531;28;20557;-76
2023/12/02 09:24:49;;;;;;;9.73;7.10;;;1.00;1.00;;;;;;5052325;28;20413;-76
2023/12/02 09:28:00;;;;;;;10.10;7.57;;;1.10;1.00;;;;;;5053004;28;20426;-76
2023/12/02 09:30:26;;;;;;;9.83;8.80;;;1.10;1.00;;;;;;5064727;28;20223;-76
2023/12/02 09:32:52;;;;;;;10.57;8.60;;;1.10;1.00;;;;;;5073027;28;20404;-76
2023/12/02 09:35:17;;;;;;;9.63;8.10;;;1.20;1.00;;;;;;5052291;28;20175;-76
2023/12/02 09:37:52;;;;;;;8.87;7.97;;;1.20;1.00;;;;;;5051046;28;20222;-76
2023/12/02 09:40:20;;;;;;;12.13;7.73;;;1.20;1.00;;;;;;5052822;28;20193;-77
2023/12/02 09:42:53;;;;;;;11.40;8.17;;;1.30;1.00;;;;;;5052973;28;20408;-76
2023/12/02 09:45:26;;;;;;;12.73;7.73;;;1.30;1.00;;;;;;5051996;28;20403;-76
2023/12/02 09:48:00;;;;;;;7.43;6.63;;;1.40;1.00;;;;;;5052951;28;20448;-76
2023/12/02 09:50:38;;;;;;;9.23;6.97;;;1.40;1.00;;;;;;5032831;28;20436;-76
2023/12/02 09:53:27;;;;;;;8.50;7.70;;;1.50;1.00;;;;;;5032409;28;20429;-77
2023/12/02 09:56:03;;;;;;;8.30;7.40;;;1.60;1.00;;;;;;5031924;28;20429;-76
2023/12/02 09:58:41;;;;;;;8.23;7.30;;;1.60;1.00;;;;;;5032682;28;20492;-77
2023/12/02 10:01:25;;;;;;;10.80;7.50;;;1.70;1.00;;;;;;5031495;28;20951;-77
2023/12/02 10:04:03;;;;;;;7.37;6.60;;;1.70;1.00;;;;;;5038738;28;20394;-77
2023/12/02 10:06:50;;;;;;;8.43;7.40;;;1.70;1.00;;;;;;5047069;28;20405;-76
2023/12/02 10:09:29;;;;;;;10.30;6.80;;;1.70;1.00;;;;;;5052712;28;20496;-76
2023/12/02 10:12:24;;;;;;;8.47;7.07;;;1.60;1.00;;;;;;5052077;28;20388;-76
2023/12/02 10:14:59;;;;;;;7.73;6.93;;;1.70;99.90;;;;;;5051810;28;20405;-77
2023/12/02 10:17:26;;;;;;;6.60;6.00;;;1.70;99.90;;;;;;5052783;28;20428;-77
2023/12/02 10:19:56;;;;;;;8.17;7.23;;;1.70;99.90;;;;;;5032688;28;20413;-77
2023/12/02 10:22:28;;;;;;;7.07;6.33;;;1.70;99.90;;;;;;5032501;28;20453;-77
2023/12/02 10:25:07;;;;;;;6.90;6.37;;;1.90;99.90;;;;;;5031750;28;20859;-76
2023/12/02 10:27:37;;;;;;;6.97;6.27;;;1.90;99.90;;;;;;5031417;28;20811;-76
2023/12/02 10:30:15;;;;;;;10.40;6.57;;;2.00;99.90;;;;;;5030645;28;20418;-77
2023/12/02 10:32:50;;;;;;;7.10;6.20;;;2.10;99.90;;;;;;5041756;28;20416;-71
2023/12/02 10:35:28;;;;;;;8.13;6.87;;;2.20;99.90;;;;;;5050242;28;20400;-77
2023/12/02 10:38:17;;;;;;;8.03;7.23;;;2.40;99.90;;;;;;5052295;28;20942;-77
2023/12/02 10:40:51;;;;;;;7.07;6.17;;;2.40;99.90;;;;;;5052122;28;20461;-77
2023/12/02 10:43:27;;;;;;;8.63;7.23;;;2.50;99.90;;;;;;5052349;28;20401;-76
2023/12/02 10:45:54;;;;;;;6.17;5.50;;;2.50;99.90;;;;;;5054274;28;20444;-77
2023/12/02 10:48:20;;;;;;;6.33;5.73;;;2.60;99.90;;;;;;5056354;28;20440;-77
2023/12/02 10:50:47;;;;;;;7.20;6.50;;;2.60;99.90;;;;;;5054577;28;20421;-77
2023/12/02 10:53:14;;;;;;;7.20;5.83;;;2.60;99.90;;;;;;5055886;28;20397;-77
2023/12/02 10:55:43;;;;;;;6.80;5.40;;;2.60;99.90;;;;;;5064565;28;20513;-76
2023/12/02 10:58:09;;;;;;;6.73;5.10;;;2.70;99.90;;;;;;5075752;28;20417;-75
2023/12/02 11:00:38;;;;;;;6.73;6.10;;;2.70;99.90;;;;;;5074570;28;20440;-73
2023/12/02 11:03:28;;;;;;;6.53;5.13;;;2.70;99.90;;;;;;5073280;28;20437;-76
2023/12/02 11:06:16;;;;;;;5.43;4.63;;;2.70;99.90;;;;;;5074288;28;20424;-79
2023/12/02 11:08:50;;;;;;;6.03;5.43;;;2.70;99.90;;;;;;5074510;28;20784;-78
2023/12/02 11:11:31;;;;;;;7.73;5.30;;;2.70;99.90;;;;;;5075551;28;20823;-76
2023/12/02 11:14:00;;;;;;;6.57;5.90;;;2.60;99.90;;;;;;5075503;28;20408;-76
2023/12/02 11:16:34;;;;;;;6.10;5.60;;;2.50;99.90;;;;;;5067524;28;20408;-78
2023/12/02 11:19:27;;;;;;;7.57;6.23;;;2.50;99.90;;;;;;5055492;28;20813;-77
2023/12/02 11:22:37;;;;;;;6.87;6.30;;;2.50;99.90;;;;;;5055096;28;20961;-77
2023/12/02 11:25:14;;;;;;;9.63;8.10;;;2.50;99.90;;;;;;5052996;28;20774;-75
